Albion, ID

2:38 AM MDT on July 05, 2015 (GMT -0600)
Burley Municipal | | Change Station
CLOSE
Current Station
Airport
Location: Burley,
Elevation: 4150 ft
Nearby Weather Stations

Elev 4150 ft 42.54 °N, 113.77 °W | Updated 45 minutes ago

Partly Cloudy
Partly Cloudy
76 °F
Feels Like 76 °F
N
12
Wind Variable Wind from WSW

Today
High -- | Low -- °F
--% Chance of Precip.
Yesterday
High -- | Low -- °F
Precip. -- in
6:03 AM 9:14 PM
Waning Gibbous, 86% visible
Pressure 29.74 in
Visibility 10.0 miles
Clouds Clear
Dew Point 51 °F
Humidity 42%
Rainfall 0.00 in
Snow Depth Not available.
UV 0 out of 12
Pollen 6.80 out of 12
Air Quality Not available.
Flu Activity Not available.
METAR KBYI 050753Z AUTO 24010KT 10SM CLR 24/11 A2991 RMK AO2 SLP069 T02440106

More Conditions Fewer Conditions

Pressure 29.74 in
Visibility 10.0 miles
Clouds Clear
Dew Point 51 °F
Humidity 42%
Rainfall 0.00 in
Snow Depth Not available.
UV 0 out of 12
Pollen 6.80 out of 12
Air Quality Not available.
Flu Activity Not available.
METAR KBYI 050753Z AUTO 24010KT 10SM CLR 24/11 A2991 RMK AO2 SLP069 T02440106

More Conditions Fewer Conditions

10-Day Weather Forecast

×

Almanac

Astronomy

Jul. 05, 2015 Rise Set
Actual Time
Civil Twilight
Nautical Twilight
Astronomical Twilight
Moon
Length of Visible Light
Length of Day
Tomorrow will be .
, % of the Moon is Illuminated

Today's Extremes

State Highs State Lows

Community

WunderPhotos

Upload Photos

1,835,218 photos uploaded!

WunderBlogs® & News

Nearby

Air Quality

  Air Quality AQ Index Pollutant
Not available.

Snow Depth

Station Depth Elevation

Earthquake Activity

City Distance Mag. Time & Date
Minimum magnitude displayed is 2.5.

Coastal Water Temperatures

Place Temperature

Stations

Nearby Weather Stations

Station Location Temp. Windchill Dew Point Humidity Wind Precip. Elev Updated Type